Time;durP1;ratioP1;P1;durP2;ratioP2;P2;SDS_P1;SDS_P2;PMS_P1;PMS_P2;Temp;Humidity;BMP_temperature;BMP_pressure;BME280_temperature;BME280_humidity;BME280_pressure;Samples;Min_cycle;Max_cycle;Signal;HPM_P1;HPM_P2
2022/09/07 00:01:39;;;;;;;13.15;7.75;;;18.60;99.90;;;;;;4997852;28;20072;-86
2022/09/07 00:04:05;;;;;;;11.77;7.80;;;18.60;99.90;;;;;;5030106;28;20044;-86
2022/09/07 00:06:33;;;;;;;10.20;7.65;;;18.60;99.90;;;;;;4997583;28;20076;-86
2022/09/07 00:09:00;;;;;;;9.95;7.95;;;18.50;99.90;;;;;;5030398;28;20051;-86
2022/09/07 00:11:27;;;;;;;9.55;7.00;;;18.40;99.90;;;;;;5012787;28;20489;-86
2022/09/07 00:13:53;;;;;;;11.32;7.53;;;18.40;99.90;;;;;;5030835;28;20052;-86
2022/09/07 00:16:25;;;;;;;8.55;7.22;;;18.40;99.90;;;;;;5008745;28;20057;-86
2022/09/07 00:18:54;;;;;;;10.00;7.75;;;18.30;99.90;;;;;;5010735;28;20167;-85
2022/09/07 00:21:20;;;;;;;7.30;6.60;;;18.30;99.90;;;;;;5009602;28;20138;-85
2022/09/07 00:23:48;;;;;;;14.63;8.18;;;18.30;99.90;;;;;;4977205;28;20536;-85
2022/09/07 00:26:17;;;;;;;8.85;7.95;;;18.40;99.90;;;;;;5010951;28;20117;-85
2022/09/07 00:28:43;;;;;;;10.57;7.80;;;18.30;99.90;;;;;;5024855;28;20030;-85
2022/09/07 00:31:12;;;;;;;14.00;7.75;;;18.30;99.90;;;;;;5027129;28;20169;-85
2022/09/07 00:33:38;;;;;;;9.43;7.72;;;18.40;99.90;;;;;;5008621;28;20038;-85
2022/09/07 00:36:04;;;;;;;11.07;7.93;;;18.30;99.90;;;;;;5010105;28;20050;-85
2022/09/07 00:38:30;;;;;;;10.90;8.20;;;18.30;99.90;;;;;;5009204;28;20041;-85
2022/09/07 00:40:55;;;;;;;8.73;7.82;;;18.20;99.90;;;;;;5025547;28;20042;-85
2022/09/07 00:43:43;;;;;;;9.50;7.80;;;18.20;99.90;;;;;;5010081;28;20037;-85
2022/09/07 00:46:16;;;;;;;10.10;8.25;;;18.10;99.90;;;;;;5025226;28;20088;-85
2022/09/07 00:49:11;;;;;;;15.45;7.72;;;18.50;99.90;;;;;;5026724;28;20153;-88
2022/09/07 00:51:46;;;;;;;8.77;7.90;;;18.10;99.90;;;;;;5009937;28;20092;-87
2022/09/07 00:54:16;;;;;;;12.15;8.02;;;18.10;99.90;;;;;;5024771;28;20057;-88
2022/09/07 00:56:45;;;;;;;11.20;8.02;;;18.10;99.90;;;;;;5027174;28;20389;-88
2022/09/07 00:59:14;;;;;;;9.73;8.30;;;18.10;99.90;;;;;;5008339;28;20038;-87
2022/09/07 01:01:39;;;;;;;10.73;8.65;;;18.10;99.90;;;;;;5026076;28;20128;-87
2022/09/07 01:04:06;;;;;;;15.75;9.35;;;18.00;99.90;;;;;;4992630;28;20141;-87
2022/09/07 01:06:35;;;;;;;9.65;8.23;;;18.00;99.90;;;;;;5008954;28;20045;-87
2022/09/07 01:09:05;;;;;;;13.27;8.60;;;18.00;99.90;;;;;;5009627;28;20045;-87
2022/09/07 01:11:33;;;;;;;11.40;8.95;;;18.00;99.90;;;;;;5024514;28;20053;-87
2022/09/07 01:14:01;;;;;;;10.98;8.50;;;17.90;99.90;;;;;;5043087;28;20041;-86
2022/09/07 01:16:40;;;;;;;13.07;8.65;;;17.90;99.90;;;;;;5007710;28;20512;-87
2022/09/07 01:19:27;;;;;;;10.45;8.65;;;17.90;99.90;;;;;;5028593;28;20045;-87
2022/09/07 01:21:58;;;;;;;14.55;8.55;;;17.90;99.90;;;;;;5029447;28;20049;-87
2022/09/07 01:24:34;;;;;;;10.40;8.20;;;17.90;99.90;;;;;;5027460;28;20095;-86
2022/09/07 01:27:30;;;;;;;9.82;8.85;;;17.90;99.90;;;;;;5029504;28;20117;-87
2022/09/07 01:30:07;;;;;;;12.35;8.93;;;17.80;99.90;;;;;;5012280;28;20091;-84
2022/09/07 01:32:54;;;;;;;14.90;9.38;;;17.80;99.90;;;;;;5027530;28;20540;-85
2022/09/07 01:35:47;;;;;;;16.15;11.23;;;17.80;99.90;;;;;;5029395;28;20072;-85
2022/09/07 01:38:31;;;;;;;14.32;11.02;;;17.80;99.90;;;;;;5027823;28;20049;-85
2022/09/07 01:41:07;;;;;;;16.23;9.77;;;17.70;99.90;;;;;;5026897;28;20147;-85
2022/09/07 01:43:51;;;;;;;24.65;11.43;;;17.60;99.90;;;;;;5029490;28;20045;-88
2022/09/07 01:46:28;;;;;;;15.52;10.68;;;17.60;99.90;;;;;;5027814;28;20090;-87
2022/09/07 01:49:07;;;;;;;13.40;10.98;;;17.50;99.90;;;;;;5029734;28;20045;-87
2022/09/07 01:51:34;;;;;;;12.65;11.32;;;17.50;99.90;;;;;;5014292;28;20095;-85
2022/09/07 01:54:08;;;;;;;13.63;11.73;;;17.50;99.90;;;;;;5011882;28;20436;-85
2022/09/07 01:56:43;;;;;;;16.25;11.75;;;17.50;99.90;;;;;;5013186;28;20049;-86
2022/09/07 01:59:34;;;;;;;13.35;11.55;;;17.50;99.90;;;;;;5027673;28;20090;-86
2022/09/07 02:02:02;;;;;;;10.80;6.63;;;17.50;99.90;;;;;;5012130;28;20461;-86
2022/09/07 02:04:40;;;;;;;7.85;6.18;;;17.50;99.90;;;;;;5046276;28;20379;-87
2022/09/07 02:07:37;;;;;;;10.50;6.88;;;17.70;99.90;;;;;;5028092;28;20483;-86
2022/09/07 02:10:23;;;;;;;8.05;6.38;;;17.50;99.90;;;;;;5004295;28;20479;-86
2022/09/07 02:12:58;;;;;;;9.20;7.15;;;17.50;99.90;;;;;;5028702;28;20455;-85
2022/09/07 02:15:51;;;;;;;10.65;8.20;;;17.50;99.90;;;;;;5027200;28;20057;-86
2022/09/07 02:18:20;;;;;;;11.02;8.07;;;17.50;99.90;;;;;;5004615;28;20484;-86
2022/09/07 02:20:50;;;;;;;12.52;9.18;;;17.50;99.90;;;;;;5027488;28;20411;-86
2022/09/07 02:23:27;;;;;;;9.73;8.52;;;17.50;99.90;;;;;;5028215;28;20041;-85
2022/09/07 02:26:01;;;;;;;12.48;9.30;;;17.50;99.90;;;;;;5028998;28;20453;-86
2022/09/07 02:28:32;;;;;;;9.82;8.75;;;17.50;99.90;;;;;;5027045;28;20049;-86
2022/09/07 02:30:59;;;;;;;11.88;8.07;;;17.50;99.90;;;;;;5028783;28;20689;-86
2022/09/07 02:33:25;;;;;;;11.52;8.45;;;17.50;99.90;;;;;;5010460;28;20041;-85
2022/09/07 02:35:51;;;;;;;14.45;9.48;;;17.50;99.90;;;;;;5011817;28;20048;-86
2022/09/07 02:38:17;;;;;;;9.82;8.35;;;17.50;99.90;;;;;;5028075;28;20116;-87
2022/09/07 02:40:49;;;;;;;10.15;8.57;;;17.50;99.90;;;;;;5011165;28;20079;-86
2022/09/07 02:43:14;;;;;;;12.35;7.85;;;17.70;99.90;;;;;;5028697;28;20045;-88
2022/09/07 02:46:11;;;;;;;11.18;6.80;;;17.50;99.90;;;;;;5027486;28;20506;-89
2022/09/07 02:48:52;;;;;;;8.20;6.18;;;17.50;99.90;;;;;;5028890;28;20075;-88
2022/09/07 02:51:44;;;;;;;8.43;7.53;;;17.40;99.90;;;;;;5011955;28;20045;-89
2022/09/07 02:54:39;;;;;;;7.97;6.55;;;17.40;99.90;;;;;;5030479;28;20136;-86
2022/09/07 02:57:14;;;;;;;8.65;6.93;;;17.30;99.90;;;;;;5015979;28;20059;-86
2022/09/07 02:59:59;;;;;;;8.48;7.40;;;17.30;99.90;;;;;;5031018;28;20053;-86
2022/09/07 03:02:50;;;;;;;9.00;7.47;;;17.20;99.90;;;;;;5030318;28;20066;-86
2022/09/07 03:05:38;;;;;;;8.77;6.63;;;17.30;99.90;;;;;;5032187;28;20044;-86
2022/09/07 03:08:10;;;;;;;10.43;7.00;;;17.20;99.90;;;;;;5030809;28;20045;-86
2022/09/07 03:10:38;;;;;;;7.30;6.63;;;17.20;99.90;;;;;;5031113;28;20052;-86
2022/09/07 03:13:04;;;;;;;8.70;6.32;;;17.20;99.90;;;;;;5015302;28;20037;-86
2022/09/07 03:15:30;;;;;;;8.65;7.22;;;17.20;99.90;;;;;;5029856;28;20071;-86
2022/09/07 03:17:55;;;;;;;8.75;6.70;;;17.20;99.90;;;;;;5031762;28;20041;-86
2022/09/07 03:20:22;;;;;;;11.38;6.72;;;17.20;99.90;;;;;;5013340;28;20072;-86
2022/09/07 03:22:50;;;;;;;6.80;5.95;;;17.20;99.90;;;;;;5031872;28;20117;-86
2022/09/07 03:25:16;;;;;;;16.42;7.88;;;17.20;99.90;;;;;;5013903;28;20507;-86
2022/09/07 03:27:42;;;;;;;11.32;7.25;;;17.20;99.90;;;;;;5031068;28;20048;-85
2022/09/07 03:30:10;;;;;;;7.55;6.85;;;17.20;99.90;;;;;;5014732;28;20045;-86
2022/09/07 03:32:37;;;;;;;7.05;5.88;;;17.20;99.90;;;;;;5030312;28;20109;-86
2022/09/07 03:35:04;;;;;;;6.60;5.07;;;17.20;99.90;;;;;;5031851;28;20072;-85
2022/09/07 03:37:30;;;;;;;7.22;4.93;;;17.20;99.90;;;;;;5046054;28;20051;-84
2022/09/07 03:39:56;;;;;;;6.82;5.35;;;17.70;99.90;;;;;;5014705;28;20041;-85
2022/09/07 03:42:22;;;;;;;8.20;6.35;;;17.20;99.90;;;;;;5013675;28;20045;-86
2022/09/07 03:44:50;;;;;;;7.57;5.82;;;17.50;99.90;;;;;;5014477;28;20068;-84
2022/09/07 03:47:17;;;;;;;6.28;5.55;;;17.10;99.90;;;;;;5031237;28;20128;-86
2022/09/07 03:49:43;;;;;;;7.97;6.13;;;17.10;99.90;;;;;;5013403;28;20045;-83
2022/09/07 03:52:09;;;;;;;7.00;6.30;;;17.10;99.90;;;;;;5049819;28;20040;-85
2022/09/07 03:54:35;;;;;;;6.05;5.50;;;17.20;99.90;;;;;;5012812;28;20151;-85
2022/09/07 03:57:00;;;;;;;9.45;7.05;;;17.00;99.90;;;;;;5014433;28;20041;-84
2022/09/07 03:59:26;;;;;;;8.45;6.05;;;17.10;99.90;;;;;;5013508;28;20049;-84
2022/09/07 04:01:52;;;;;;;13.52;7.68;;;17.10;99.90;;;;;;5029983;28;20417;-84
2022/09/07 04:04:18;;;;;;;7.60;6.40;;;17.00;99.90;;;;;;5013620;28;20041;-84
2022/09/07 04:06:43;;;;;;;9.57;6.22;;;17.10;99.90;;;;;;5013310;28;20500;-85
2022/09/07 04:09:12;;;;;;;9.02;6.55;;;17.00;99.90;;;;;;5015461;28;20419;-86
2022/09/07 04:11:39;;;;;;;8.55;5.95;;;17.00;99.90;;;;;;5029697;28;20132;-85
2022/09/07 04:14:05;;;;;;;7.32;5.95;;;17.00;99.90;;;;;;5014249;28;20093;-84
2022/09/07 04:16:31;;;;;;;7.72;6.20;;;17.00;99.90;;;;;;5012960;28;20053;-85
2022/09/07 04:18:57;;;;;;;6.90;6.18;;;17.00;99.90;;;;;;5032756;28;20037;-84
2022/09/07 04:21:26;;;;;;;9.45;6.80;;;16.90;99.90;;;;;;5031841;28;20490;-84
2022/09/07 04:23:52;;;;;;;9.85;7.07;;;16.90;99.90;;;;;;5029104;28;20056;-84
2022/09/07 04:26:30;;;;;;;7.25;6.50;;;16.90;99.90;;;;;;5030990;28;20067;-84
2022/09/07 04:28:57;;;;;;;9.85;7.50;;;16.90;99.90;;;;;;5011939;28;20049;-84
2022/09/07 04:31:23;;;;;;;8.13;7.22;;;16.90;99.90;;;;;;5029760;28;20134;-84
2022/09/07 04:33:50;;;;;;;9.43;7.20;;;16.90;99.90;;;;;;5029085;28;20086;-84
2022/09/07 04:36:17;;;;;;;10.02;8.13;;;17.70;99.90;;;;;;5012679;28;20052;-84
2022/09/07 04:38:44;;;;;;;10.55;8.13;;;17.00;99.90;;;;;;5030037;28;20386;-83
2022/09/07 04:41:13;;;;;;;10.95;8.15;;;16.80;99.90;;;;;;5028528;28;20562;-86
2022/09/07 04:43:39;;;;;;;13.80;9.00;;;16.90;99.90;;;;;;5030111;28;20048;-85
2022/09/07 04:46:09;;;;;;;13.65;9.23;;;17.20;99.90;;;;;;5012544;28;20067;-83
2022/09/07 04:48:35;;;;;;;12.10;10.13;;;16.90;99.90;;;;;;5029838;28;20408;-83
2022/09/07 04:51:08;;;;;;;13.57;9.75;;;16.90;99.90;;;;;;5012943;28;20047;-84
2022/09/07 04:53:36;;;;;;;22.92;10.55;;;16.90;99.90;;;;;;5012653;28;20055;-84
2022/09/07 04:56:03;;;;;;;11.20;10.07;;;16.80;99.90;;;;;;5029897;28;20041;-84
2022/09/07 04:58:29;;;;;;;12.25;10.93;;;16.80;99.90;;;;;;5027861;28;20041;-83
2022/09/07 05:00:59;;;;;;;12.77;10.98;;;17.10;99.90;;;;;;5013256;28;20055;-83
2022/09/07 05:03:24;;;;;;;14.20;12.55;;;16.90;99.90;;;;;;5028519;28;20040;-85
2022/09/07 05:05:50;;;;;;;13.43;12.02;;;16.80;99.90;;;;;;5045972;28;20091;-85
2022/09/07 05:08:16;;;;;;;18.88;13.73;;;16.80;99.90;;;;;;5012522;28;20040;-85
2022/09/07 05:10:50;;;;;;;13.60;12.23;;;16.80;99.90;;;;;;5011658;28;20045;-84
2022/09/07 05:13:16;;;;;;;14.07;12.68;;;16.90;99.90;;;;;;5030005;28;20080;-81
2022/09/07 05:15:42;;;;;;;15.80;13.30;;;16.90;99.90;;;;;;5027475;28;20099;-82
2022/09/07 05:18:07;;;;;;;18.70;14.38;;;16.80;99.90;;;;;;5013360;28;20045;-82
2022/09/07 05:20:33;;;;;;;14.77;13.27;;;16.80;99.90;;;;;;5011177;28;20052;-83
2022/09/07 05:22:59;;;;;;;18.77;14.43;;;16.80;99.90;;;;;;5013538;28;20103;-85
2022/09/07 05:25:28;;;;;;;18.73;14.70;;;16.90;99.90;;;;;;5012403;28;20041;-85
2022/09/07 05:27:54;;;;;;;18.67;15.38;;;16.90;99.90;;;;;;5044223;28;20496;-85
2022/09/07 05:30:20;;;;;;;21.83;15.90;;;16.90;99.90;;;;;;5013066;28;20045;-84
2022/09/07 05:32:46;;;;;;;16.88;15.27;;;17.00;99.90;;;;;;5027238;28;20043;-87
2022/09/07 05:35:12;;;;;;;17.88;15.88;;;16.10;99.90;;;;;;5029776;28;20037;-85
2022/09/07 05:37:38;;;;;;;18.83;16.58;;;17.00;99.90;;;;;;4995561;28;20064;-86
2022/09/07 05:40:04;;;;;;;20.52;17.20;;;16.90;99.90;;;;;;5012352;28;20048;-84
2022/09/07 05:42:30;;;;;;;21.58;18.65;;;17.00;99.90;;;;;;5028503;28;20041;-85
2022/09/07 05:44:56;;;;;;;20.63;18.45;;;17.00;99.90;;;;;;5028195;28;20068;-83
2022/09/07 05:47:25;;;;;;;19.00;17.02;;;17.40;99.90;;;;;;5045682;28;20128;-84
2022/09/07 05:49:53;;;;;;;22.55;18.67;;;17.10;99.90;;;;;;5044142;28;20046;-84
2022/09/07 05:52:19;;;;;;;23.95;18.42;;;17.00;99.90;;;;;;5012726;28;20048;-86
2022/09/07 05:54:45;;;;;;;18.98;17.25;;;17.10;99.90;;;;;;4995281;28;20124;-87
2022/09/07 05:57:11;;;;;;;20.65;18.45;;;17.10;99.90;;;;;;5012393;28;20504;-87
2022/09/07 05:59:37;;;;;;;19.38;17.50;;;17.10;99.90;;;;;;4995825;28;20075;-87
2022/09/07 06:02:03;;;;;;;20.50;18.08;;;17.70;99.90;;;;;;5011544;28;20493;-87
2022/09/07 06:04:28;;;;;;;19.95;17.30;;;17.10;99.90;;;;;;5029276;28;20084;-86
2022/09/07 06:06:54;;;;;;;21.65;19.38;;;17.20;99.90;;;;;;5010702;28;20095;-87
2022/09/07 06:09:20;;;;;;;19.80;17.80;;;17.20;99.90;;;;;;5012539;28;20396;-86
2022/09/07 06:11:46;;;;;;;19.80;17.80;;;17.20;99.90;;;;;;5010627;28;20041;-86
2022/09/07 06:14:11;;;;;;;22.17;19.20;;;17.20;99.90;;;;;;4995519;28;20083;-86
2022/09/07 06:16:37;;;;;;;20.92;18.17;;;18.40;99.90;;;;;;5011359;28;20056;-86
2022/09/07 06:19:05;;;;;;;23.90;19.02;;;17.20;99.90;;;;;;5027485;28;20041;-87
2022/09/07 06:21:37;;;;;;;23.17;18.25;;;17.30;99.90;;;;;;5028945;28;20049;-87
2022/09/07 06:24:04;;;;;;;20.05;17.90;;;17.30;99.90;;;;;;5026855;28;20052;-87
2022/09/07 06:26:31;;;;;;;24.10;20.42;;;17.30;99.90;;;;;;5012590;28;20047;-87
2022/09/07 06:28:57;;;;;;;23.10;19.25;;;17.30;99.90;;;;;;5014201;28;20145;-87
2022/09/07 06:31:24;;;;;;;22.65;19.33;;;18.40;99.90;;;;;;5032211;28;20048;-86
2022/09/07 06:33:50;;;;;;;24.75;20.15;;;17.60;99.90;;;;;;5015371;28;20041;-87
2022/09/07 06:36:19;;;;;;;21.52;19.30;;;17.40;99.90;;;;;;5031352;28;20043;-87
2022/09/07 06:38:45;;;;;;;22.77;18.92;;;17.40;99.90;;;;;;5032703;28;20128;-87
2022/09/07 06:41:13;;;;;;;20.52;18.33;;;17.40;99.90;;;;;;5047532;28;20493;-87
2022/09/07 06:43:40;;;;;;;21.05;18.45;;;17.50;99.90;;;;;;5032823;28;20041;-86
2022/09/07 06:46:06;;;;;;;25.00;18.35;;;17.50;99.90;;;;;;5014457;28;20084;-87
2022/09/07 06:48:32;;;;;;;21.70;17.67;;;17.40;99.90;;;;;;5031844;28;20591;-88
2022/09/07 06:51:08;;;;;;;25.13;18.92;;;17.40;99.90;;;;;;5015014;28;20207;-87
2022/09/07 06:53:35;;;;;;;23.65;19.05;;;17.40;99.90;;;;;;5047338;28;20513;-87
2022/09/07 06:56:05;;;;;;;20.25;18.23;;;17.40;99.90;;;;;;5032600;28;20123;-87
2022/09/07 06:58:30;;;;;;;22.40;18.17;;;17.40;99.90;;;;;;5030437;28;20045;-87
2022/09/07 07:00:56;;;;;;;21.17;18.13;;;17.40;99.90;;;;;;5015596;28;20049;-87
2022/09/07 07:03:22;;;;;;;23.17;20.10;;;17.40;99.90;;;;;;5014839;28;20068;-86
2022/09/07 07:05:54;;;;;;;20.92;18.58;;;17.40;99.90;;;;;;5031293;28;20051;-85
2022/09/07 07:08:22;;;;;;;22.17;19.77;;;17.90;99.90;;;;;;5031640;28;20049;-87
2022/09/07 07:10:48;;;;;;;24.17;21.60;;;17.40;99.90;;;;;;5014045;28;20045;-87
2022/09/07 07:13:14;;;;;;;25.00;21.60;;;17.30;99.90;;;;;;5015573;28;20052;-87
2022/09/07 07:15:40;;;;;;;28.52;22.60;;;17.40;99.90;;;;;;5029441;28;20057;-87
2022/09/07 07:18:06;;;;;;;27.73;23.20;;;17.40;99.90;;;;;;5031747;28;20081;-87
2022/09/07 07:20:34;;;;;;;30.20;21.52;;;17.40;99.90;;;;;;5014376;28;20134;-87
2022/09/07 07:23:00;;;;;;;32.63;24.08;;;17.50;99.90;;;;;;5014771;28;20090;-88
2022/09/07 07:25:26;;;;;;;27.67;24.15;;;17.60;99.90;;;;;;5031199;28;20049;-86
2022/09/07 07:27:52;;;;;;;25.67;23.02;;;17.60;99.90;;;;;;5013440;28;20041;-87
2022/09/07 07:30:18;;;;;;;26.67;23.88;;;17.70;99.90;;;;;;5015260;28;20049;-87
2022/09/07 07:32:45;;;;;;;27.63;23.25;;;17.80;99.90;;;;;;5029473;28;20127;-87
2022/09/07 07:35:17;;;;;;;28.95;25.02;;;17.80;99.90;;;;;;5031640;28;20091;-88
2022/09/07 07:37:43;;;;;;;30.92;22.95;;;17.80;99.90;;;;;;5030410;28;20047;-88
2022/09/07 07:40:11;;;;;;;27.25;23.08;;;17.90;99.90;;;;;;5029279;28;20459;-87
2022/09/07 07:42:38;;;;;;;24.83;22.15;;;17.90;99.90;;;;;;5031052;28;20049;-88
2022/09/07 07:45:08;;;;;;;26.17;22.17;;;17.90;99.90;;;;;;5029863;28;20052;-89
2022/09/07 07:47:34;;;;;;;22.63;18.83;;;17.90;99.90;;;;;;5031940;28;20052;-88
2022/09/07 07:50:01;;;;;;;28.15;17.63;;;18.00;99.90;;;;;;5012937;28;20041;-89
2022/09/07 07:52:38;;;;;;;19.10;16.63;;;18.00;99.90;;;;;;5014705;28;20072;-88
2022/09/07 07:55:05;;;;;;;22.35;16.27;;;17.90;99.90;;;;;;5014112;28;20137;-88
2022/09/07 07:57:31;;;;;;;20.08;17.17;;;18.00;99.90;;;;;;5030027;28;20053;-88
2022/09/07 07:59:57;;;;;;;21.33;18.13;;;18.00;99.90;;;;;;5015018;28;20047;-88
2022/09/07 08:02:23;;;;;;;20.55;17.45;;;18.00;99.90;;;;;;5012934;28;20496;-89
2022/09/07 08:04:49;;;;;;;23.10;19.27;;;18.00;99.90;;;;;;5031303;28;20103;-88
2022/09/07 08:07:15;;;;;;;24.23;18.88;;;18.00;99.90;;;;;;5028787;28;20061;-88
2022/09/07 08:09:43;;;;;;;25.52;20.63;;;18.10;99.90;;;;;;5047872;28;20045;-88
2022/09/07 08:12:11;;;;;;;22.60;20.20;;;18.00;99.90;;;;;;5029679;28;20418;-88
2022/09/07 08:14:40;;;;;;;22.70;20.48;;;18.10;99.90;;;;;;5029780;28;20087;-88
2022/09/07 08:17:10;;;;;;;31.17;21.00;;;18.20;99.90;;;;;;5031188;28;20041;-88
2022/09/07 08:19:37;;;;;;;21.92;19.63;;;18.30;99.90;;;;;;5028734;28;20049;-88
2022/09/07 08:22:02;;;;;;;23.90;20.58;;;18.40;99.90;;;;;;5030910;28;20485;-88
2022/09/07 08:24:30;;;;;;;24.80;21.08;;;18.50;99.90;;;;;;5012450;28;20049;-88
2022/09/07 08:26:56;;;;;;;23.77;20.83;;;18.50;99.90;;;;;;5030779;28;20179;-88
2022/09/07 08:29:22;;;;;;;24.10;21.52;;;18.60;99.90;;;;;;5013020;28;20403;-83
2022/09/07 08:31:47;;;;;;;24.33;21.17;;;18.60;99.90;;;;;;5029473;28;20060;-84
2022/09/07 08:34:13;;;;;;;25.70;21.30;;;18.70;99.90;;;;;;5046795;28;20048;-83
2022/09/07 08:36:39;;;;;;;23.90;20.98;;;18.70;99.90;;;;;;5046441;28;20127;-83
2022/09/07 08:39:04;;;;;;;21.90;19.70;;;19.00;99.90;;;;;;5048711;28;20079;-84
2022/09/07 08:41:48;;;;;;;26.02;20.52;;;19.00;99.90;;;;;;5011616;28;20041;-84
2022/09/07 08:44:49;;;;;;;23.33;20.90;;;19.00;99.90;;;;;;5029948;28;20535;-83
2022/09/07 08:47:37;;;;;;;21.38;19.13;;;19.00;99.90;;;;;;5030317;28;20053;-84
2022/09/07 08:50:09;;;;;;;21.83;19.60;;;19.10;99.90;;;;;;5027715;28;20080;-84
2022/09/07 08:53:10;;;;;;;23.63;20.40;;;19.10;99.90;;;;;;5030449;28;20471;-84
2022/09/07 08:55:49;;;;;;;22.88;19.50;;;19.10;99.90;;;;;;5000799;28;20059;-84
2022/09/07 08:58:21;;;;;;;25.63;22.33;;;19.10;99.90;;;;;;5027972;28;20126;-89
2022/09/07 09:00:50;;;;;;;24.55;19.67;;;19.00;99.90;;;;;;5013870;28;20091;-89
2022/09/07 09:03:26;;;;;;;22.25;19.92;;;19.00;99.90;;;;;;5028769;28;20443;-89
2022/09/07 09:06:09;;;;;;;22.45;18.67;;;19.00;99.90;;;;;;5028807;28;20045;-89
2022/09/07 09:08:54;;;;;;;25.38;20.50;;;18.90;99.90;;;;;;5030321;28;20053;-89
2022/09/07 09:11:38;;;;;;;23.52;19.23;;;18.90;99.90;;;;;;5027859;28;20127;-90
2022/09/07 09:14:14;;;;;;;22.48;18.98;;;18.90;99.90;;;;;;5029440;28;20076;-89
2022/09/07 09:16:48;;;;;;;25.90;19.15;;;18.90;99.90;;;;;;5029273;28;20112;-88
2022/09/07 09:19:29;;;;;;;23.55;19.73;;;19.00;99.90;;;;;;5011636;28;20075;-89
2022/09/07 09:22:22;;;;;;;22.00;19.42;;;19.20;99.90;;;;;;5030642;28;20442;-88
2022/09/07 09:24:53;;;;;;;20.92;18.58;;;19.50;99.90;;;;;;5026438;28;20448;-89
2022/09/07 09:27:19;;;;;;;21.02;18.80;;;19.70;99.90;;;;;;5012597;28;20545;-89
2022/09/07 09:29:45;;;;;;;20.98;17.95;;;19.90;99.90;;;;;;4996614;28;20060;-89
2022/09/07 09:32:32;;;;;;;19.65;17.45;;;20.10;99.90;;;;;;5011231;28;20063;-89
2022/09/07 09:35:31;;;;;;;17.83;15.95;;;20.40;99.90;;;;;;5029845;28;20048;-90
2022/09/07 09:37:56;;;;;;;19.52;16.52;;;20.50;99.90;;;;;;5009836;28;20053;-89
2022/09/07 09:40:32;;;;;;;16.83;15.13;;;20.70;99.90;;;;;;5011501;28;20409;-90
2022/09/07 09:43:04;;;;;;;17.63;15.88;;;20.70;99.90;;;;;;5029832;28;20037;-89
2022/09/07 09:45:40;;;;;;;19.27;16.00;;;20.80;99.90;;;;;;5027478;28;20396;-90
2022/09/07 09:48:10;;;;;;;17.42;15.65;;;20.80;99.90;;;;;;5029457;28;20041;-90
2022/09/07 09:50:39;;;;;;;18.08;16.17;;;20.80;99.90;;;;;;5028290;28;20053;-89
2022/09/07 09:53:06;;;;;;;17.67;15.75;;;20.80;99.90;;;;;;5028225;28;20421;-90
2022/09/07 09:55:35;;;;;;;20.52;16.17;;;20.80;99.90;;;;;;5012760;28;20044;-86
2022/09/07 09:58:23;;;;;;;16.05;14.32;;;20.80;99.90;;;;;;5027602;28;20201;-90
2022/09/07 10:00:56;;;;;;;18.52;13.93;;;20.70;99.90;;;;;;5029573;28;20053;-88
2022/09/07 10:03:25;;;;;;;17.30;15.32;;;20.90;99.90;;;;;;5026999;28;20048;-88
2022/09/07 10:05:51;;;;;;;17.88;14.63;;;20.90;99.90;;;;;;5028009;28;20041;-87
2022/09/07 10:08:18;;;;;;;15.77;13.48;;;20.90;99.90;;;;;;5012231;28;20037;-87
2022/09/07 10:11:14;;;;;;;18.08;14.13;;;20.90;99.90;;;;;;5043383;28;20527;-87
2022/09/07 10:13:54;;;;;;;15.93;14.32;;;20.90;99.90;;;;;;5028217;28;20045;-87
2022/09/07 10:16:37;;;;;;;16.25;12.85;;;21.00;99.90;;;;;;5027975;28;20063;-88
2022/09/07 10:19:03;;;;;;;15.15;12.55;;;20.90;99.90;;;;;;5027220;28;20049;-87
2022/09/07 10:21:32;;;;;;;13.68;12.27;;;20.90;99.90;;;;;;5012497;28;20059;-87
2022/09/07 10:23:59;;;;;;;12.02;10.90;;;21.00;99.90;;;;;;5010232;28;20045;-88
2022/09/07 10:26:36;;;;;;;11.98;9.93;;;21.10;99.90;;;;;;5029016;28;20049;-87
2022/09/07 10:29:21;;;;;;;11.27;10.10;;;21.10;99.90;;;;;;5027168;28;20500;-87
2022/09/07 10:32:08;;;;;;;11.07;9.93;;;21.20;99.90;;;;;;5027651;28;20198;-88
2022/09/07 10:34:36;;;;;;;9.90;8.13;;;21.50;99.90;;;;;;5029307;28;20127;-88
2022/09/07 10:37:32;;;;;;;8.93;8.02;;;21.80;99.90;;;;;;5042857;28;20049;-88
2022/09/07 10:40:26;;;;;;;9.20;8.13;;;22.00;99.90;;;;;;5028135;28;20056;-88
2022/09/07 10:43:09;;;;;;;9.48;7.93;;;22.30;99.90;;;;;;5028923;28;20048;-88
2022/09/07 10:45:56;;;;;;;8.52;7.63;;;22.30;99.90;;;;;;5010797;28;20088;-88
2022/09/07 10:48:48;;;;;;;7.47;6.40;;;22.30;99.90;;;;;;5028519;28;20045;-87
2022/09/07 10:51:29;;;;;;;7.43;6.38;;;22.30;99.90;;;;;;5011408;28;20085;-87
2022/09/07 10:54:13;;;;;;;8.18;7.40;;;22.30;99.90;;;;;;5030241;28;20049;-87
2022/09/07 10:57:04;;;;;;;9.68;6.68;;;22.30;99.90;;;;;;5032264;28;20048;-88
2022/09/07 11:00:01;;;;;;;7.00;6.30;;;22.30;99.90;;;;;;5031891;28;20049;-88
2022/09/07 11:02:51;;;;;;;8.20;5.85;;;22.50;99.90;;;;;;5011294;28;20080;-87
2022/09/07 11:05:41;;;;;;;5.80;5.28;;;22.80;99.90;;;;;;5049925;28;20045;-88
2022/09/07 11:08:32;;;;;;;6.60;5.78;;;23.10;99.90;;;;;;5032054;28;20655;-87
2022/09/07 11:11:04;;;;;;;5.28;4.78;;;23.40;99.90;;;;;;5027760;28;20049;-86
2022/09/07 11:13:35;;;;;;;6.40;4.85;;;23.50;99.90;;;;;;5031286;28;20041;-87
2022/09/07 11:16:10;;;;;;;4.60;3.97;;;23.60;99.90;;;;;;5030778;28;20138;-87
2022/09/07 11:18:56;;;;;;;5.65;5.05;;;23.70;99.90;;;;;;5031322;28;20198;-88
2022/09/07 11:21:29;;;;;;;5.22;4.70;;;23.90;99.90;;;;;;5032711;28;20097;-87
2022/09/07 11:24:10;;;;;;;6.65;4.57;;;24.00;99.90;;;;;;5030934;28;20442;-88
2022/09/07 11:26:45;;;;;;;4.68;4.20;;;24.30;99.90;;;;;;5031884;28;20140;-88
2022/09/07 11:29:21;;;;;;;5.47;4.22;;;24.40;99.90;;;;;;5031108;28;20381;-88
2022/09/07 11:31:52;;;;;;;4.90;3.88;;;24.60;99.90;;;;;;5030246;28;20088;-88
2022/09/07 11:34:39;;;;;;;5.18;3.97;;;24.70;99.90;;;;;;5031976;28;20395;-87
2022/09/07 11:37:29;;;;;;;4.45;4.05;;;24.90;99.90;;;;;;5030095;28;20424;-87
2022/09/07 11:40:10;;;;;;;5.13;3.70;;;25.00;99.90;;;;;;5014060;28;20118;-88
2022/09/07 11:42:58;;;;;;;5.07;3.33;;;25.10;99.90;;;;;;5031382;28;20079;-87
2022/09/07 11:45:40;;;;;;;4.05;3.65;;;25.20;99.90;;;;;;5013484;28;20538;-86
2022/09/07 11:48:27;;;;;;;4.65;3.35;;;25.10;99.90;;;;;;5030858;28;20136;-86
2022/09/07 11:51:17;;;;;;;4.35;3.72;;;25.00;99.90;;;;;;5030898;28;20393;-86
2022/09/07 11:53:49;;;;;;;3.00;2.70;;;25.00;99.90;;;;;;5029254;28;20136;-86
2022/09/07 11:56:30;;;;;;;4.90;3.38;;;25.00;99.90;;;;;;5031130;28;20041;-85
2022/09/07 11:59:33;;;;;;;4.90;3.40;;;25.00;99.90;;;;;;5030154;28;20045;-84
2022/09/07 12:02:20;;;;;;;5.07;3.70;;;25.10;99.90;;;;;;5029699;28;20051;-85
2022/09/07 12:05:05;;;;;;;5.05;3.20;;;25.30;99.90;;;;;;5031455;28;20415;-85
2022/09/07 12:07:43;;;;;;;7.70;2.90;;;25.30;99.90;;;;;;5030241;28;20048;-85
2022/09/07 12:10:30;;;;;;;2.47;2.05;;;25.40;99.90;;;;;;5029592;28;20557;-86
2022/09/07 12:13:14;;;;;;;2.75;1.90;;;25.50;99.90;;;;;;5031632;28;20045;-86
2022/09/07 12:15:50;;;;;;;2.67;1.80;;;25.50;99.90;;;;;;5012830;28;20408;-86
2022/09/07 12:18:49;;;;;;;2.88;1.60;;;25.30;99.90;;;;;;5030434;28;20052;-85
2022/09/07 12:21:36;;;;;;;6.68;1.75;;;25.00;99.90;;;;;;5011537;28;20053;-86
2022/09/07 12:24:02;;;;;;;2.28;1.60;;;24.80;99.90;;;;;;5012736;28;20049;-87
2022/09/07 12:26:36;;;;;;;3.13;1.40;;;24.70;99.90;;;;;;4997874;28;20073;-87
2022/09/07 12:29:05;;;;;;;3.13;1.58;;;24.80;99.90;;;;;;5030437;28;20117;-87
2022/09/07 12:31:48;;;;;;;2.08;1.30;;;24.80;99.90;;;;;;5044879;28;20049;-87
2022/09/07 12:34:29;;;;;;;2.47;1.10;;;24.90;99.90;;;;;;5031114;28;20083;-87
2022/09/07 12:36:55;;;;;;;1.20;0.70;;;24.90;99.90;;;;;;5029270;28;20396;-87
2022/09/07 12:39:31;;;;;;;3.88;0.88;;;25.00;99.90;;;;;;5014019;28;20041;-87
2022/09/07 12:42:09;;;;;;;2.42;1.00;;;25.30;99.90;;;;;;5014485;28;20388;-87
2022/09/07 12:44:36;;;;;;;4.57;1.00;;;25.50;99.90;;;;;;5028564;28;20041;-87
2022/09/07 12:47:11;;;;;;;1.58;0.90;;;25.70;99.90;;;;;;5014162;28;20459;-87
2022/09/07 12:49:55;;;;;;;2.50;0.65;;;25.90;99.90;;;;;;5028231;28;20044;-86
2022/09/07 12:52:36;;;;;;;2.67;0.95;;;26.10;99.90;;;;;;5029923;28;20041;-87
2022/09/07 12:55:22;;;;;;;0.82;0.57;;;26.20;99.90;;;;;;5029746;28;20045;-86
2022/09/07 12:57:53;;;;;;;2.78;0.57;;;26.40;99.90;;;;;;5027612;28;20478;-86
2022/09/07 13:00:54;;;;;;;1.55;0.47;;;26.50;99.90;;;;;;5030362;28;20465;-86
2022/09/07 13:03:36;;;;;;;2.20;0.88;;;26.70;99.90;;;;;;4995141;28;20411;-86
2022/09/07 13:06:29;;;;;;;1.52;0.70;;;26.80;99.90;;;;;;5028352;28;20072;-86